Kezdőlap
METAR-TAF:

METAR-TAF

Repülőterek :

Berlin, New Hampshire, Amerikai Egyesült Államok

földrajzi szélesség: 44-34-34N, földrajzi hosszúság: 071-10-43W, magasság: 353 m

Jelenlegi meteorológiai megfigyelések

A jelentés 39 perccel ezelõtt készült, 08:08 UTC
Szélcsend
Hőmérséklet 3°C
Páratartalom 93%
Légköri nyomás 1015 hPa
Látótávolság: 4.0 km
Szórványos felhőzet 500 lábon
Borult 2000 lábon
Párásság

METAR: KBML 270808Z AUTO 00000KT 2 1/2SM BR SCT005 OVC020 03/02 A2998 RMK AO2 T00280022

Idő: 03:47 (08:47 UTC)


TAF: hiányzik

Meteorológiai megfigyelések és előrejelzések több, mint 4000 repülőtéren (METAR és TAF jelentéseket).

A térképen piros és sárga pontok jelzik az elérhető meteorológiai állomásokat.

Mozgassa az egeret a pont fölött, hogy megjelenjen az állomás neve.

Azután kattintson az időjárási megfigyelések és előrejelzések megtekintéséhez.

A térkép megváltoztatása: kattintson a fekete keresztel jelölt zöld gombra ráközelítéshez, a vonallal jelölt zöld gombra távolításhoz, vagy a zöld nyilakra a szomszédos térképek eléréséhez.


METAR-TAF: